Time;durP1;ratioP1;P1;durP2;ratioP2;P2;SDS_P1;SDS_P2;PMS_P1;PMS_P2;Temp;Humidity;BMP_temperature;BMP_pressure;BME280_temperature;BME280_humidity;BME280_pressure;Samples;Min_cycle;Max_cycle;Signal;HPM_P1;HPM_P2
2022/07/06 00:02:13;;;;;;;6.50;3.70;;;25.90;75.70;;;;;;5005645;28;20208;-83
2022/07/06 00:04:41;;;;;;;5.17;3.57;;;25.90;76.20;;;;;;5002123;28;20299;-83
2022/07/06 00:07:08;;;;;;;8.20;3.63;;;25.80;76.30;;;;;;5029886;28;20235;-83
2022/07/06 00:09:36;;;;;;;7.23;3.20;;;25.90;76.50;;;;;;5015278;28;20212;-83
2022/07/06 00:12:03;;;;;;;6.77;3.83;;;25.80;76.40;;;;;;5018012;28;20278;-84
2022/07/06 00:14:31;;;;;;;8.47;3.03;;;25.80;76.30;;;;;;5021093;28;20216;-82
2022/07/06 00:17:02;;;;;;;8.03;3.37;;;25.80;76.30;;;;;;5021616;28;20204;-82
2022/07/06 00:19:29;;;;;;;7.43;3.40;;;25.70;76.00;;;;;;5036924;28;20230;-83
2022/07/06 00:22:01;;;;;;;6.43;2.93;;;25.70;75.70;;;;;;5010580;28;20203;-84
2022/07/06 00:24:29;;;;;;;6.13;3.40;;;25.70;75.30;;;;;;5021052;28;20234;-83
2022/07/06 00:26:56;;;;;;;3.80;3.13;;;25.70;74.90;;;;;;5004563;28;20636;-83
2022/07/06 00:29:24;;;;;;;4.17;2.90;;;25.70;73.90;;;;;;4991158;28;20670;-84
2022/07/06 00:31:51;;;;;;;7.33;3.17;;;25.70;73.20;;;;;;5012232;28;20207;-84
2022/07/06 00:34:19;;;;;;;3.60;2.60;;;25.70;73.50;;;;;;5020886;28;20235;-84
2022/07/06 00:36:47;;;;;;;3.63;2.77;;;25.70;71.60;;;;;;5009626;28;20215;-83
2022/07/06 00:39:15;;;;;;;3.93;2.57;;;25.70;71.20;;;;;;5005273;28;20225;-84
2022/07/06 00:41:43;;;;;;;3.37;2.40;;;25.80;70.00;;;;;;5021279;28;20233;-84
2022/07/06 00:44:11;;;;;;;2.90;2.20;;;25.80;69.50;;;;;;5036869;28;20281;-83
2022/07/06 00:46:39;;;;;;;4.17;2.37;;;25.80;69.50;;;;;;5037552;28;20297;-84
2022/07/06 00:50:13;;;;;;;4.30;2.60;;;25.80;68.60;;;;;;5016388;28;20203;-84
2022/07/06 00:51:56;;;;;;;4.43;2.73;;;25.80;68.70;;;;;;5020682;28;20560;-83
2022/07/06 00:54:23;;;;;;;3.87;2.40;;;25.80;68.40;;;;;;5021213;28;20211;-83
2022/07/06 00:56:51;;;;;;;3.33;2.53;;;25.80;68.40;;;;;;5021452;28;20226;-83
2022/07/06 00:59:19;;;;;;;4.50;2.70;;;25.80;68.30;;;;;;5037872;28;20203;-83
2022/07/06 01:01:47;;;;;;;3.47;2.70;;;25.70;67.90;;;;;;5038355;28;20277;-83
2022/07/06 01:04:15;;;;;;;2.90;2.53;;;25.70;67.90;;;;;;5037023;28;20309;-82
2022/07/06 01:06:47;;;;;;;5.53;2.30;;;25.60;67.60;;;;;;5036877;28;20226;-83
2022/07/06 01:09:20;;;;;;;3.80;2.40;;;25.60;67.80;;;;;;5020720;28;20654;-84
2022/07/06 01:11:48;;;;;;;3.47;2.23;;;25.50;67.50;;;;;;5021116;28;20649;-83
2022/07/06 01:14:17;;;;;;;4.87;2.17;;;25.50;67.30;;;;;;5020758;28;20238;-82
2022/07/06 01:16:44;;;;;;;6.50;2.63;;;25.50;67.20;;;;;;5036998;28;20207;-83
2022/07/06 01:19:12;;;;;;;7.17;2.20;;;25.50;67.10;;;;;;5017337;28;20224;-84
2022/07/06 01:21:42;;;;;;;3.20;2.17;;;25.40;66.90;;;;;;5022507;28;20211;-81
2022/07/06 01:24:12;;;;;;;5.80;1.80;;;25.40;66.90;;;;;;5004781;28;20609;-82
2022/07/06 01:26:39;;;;;;;3.77;1.80;;;25.40;66.90;;;;;;5018188;28;20216;-83
2022/07/06 01:29:07;;;;;;;5.33;2.27;;;25.40;66.90;;;;;;5012461;28;20269;-84
2022/07/06 01:31:34;;;;;;;3.20;2.70;;;25.30;66.60;;;;;;5019821;28;20235;-82
2022/07/06 01:34:02;;;;;;;8.10;2.47;;;25.30;66.50;;;;;;5004491;28;20205;-82
2022/07/06 01:36:29;;;;;;;2.87;1.93;;;25.30;66.80;;;;;;5023023;28;20204;-83
2022/07/06 01:38:58;;;;;;;6.40;2.10;;;25.20;66.70;;;;;;5011116;28;20219;-83
2022/07/06 01:41:27;;;;;;;5.80;2.20;;;25.20;66.70;;;;;;5020081;28;20226;-82
2022/07/06 01:43:54;;;;;;;3.07;2.50;;;25.20;66.70;;;;;;5003266;28;20207;-82
2022/07/06 01:46:22;;;;;;;2.43;2.23;;;25.20;66.70;;;;;;5037303;28;20573;-82
2022/07/06 01:48:49;;;;;;;4.27;2.33;;;25.20;66.70;;;;;;5019903;28;20217;-83
2022/07/06 01:51:16;;;;;;;2.37;1.87;;;25.20;66.70;;;;;;5029208;28;20207;-82
2022/07/06 01:53:45;;;;;;;5.10;1.90;;;25.10;66.40;;;;;;5025488;28;20215;-83
2022/07/06 01:56:14;;;;;;;2.80;1.50;;;25.10;66.30;;;;;;5002619;28;20548;-83
2022/07/06 01:58:46;;;;;;;5.83;1.40;;;25.00;66.20;;;;;;5037045;28;20218;-84
2022/07/06 02:01:17;;;;;;;5.60;1.67;;;25.00;66.00;;;;;;5019608;28;20200;-83
2022/07/06 02:03:45;;;;;;;8.37;1.87;;;25.00;66.00;;;;;;5034922;28;20262;-83
2022/07/06 02:06:13;;;;;;;1.80;1.30;;;25.00;66.10;;;;;;5000079;28;20215;-83
2022/07/06 02:08:42;;;;;;;5.20;1.60;;;25.00;66.30;;;;;;5034164;28;20261;-82
2022/07/06 02:11:10;;;;;;;2.77;1.60;;;25.00;66.50;;;;;;5019370;28;20238;-81
2022/07/06 02:13:39;;;;;;;3.23;1.50;;;25.00;66.50;;;;;;5032913;28;20204;-82
2022/07/06 02:16:10;;;;;;;3.13;1.67;;;25.00;66.70;;;;;;5019658;28;20270;-82
2022/07/06 02:18:38;;;;;;;5.50;1.70;;;25.00;66.70;;;;;;5002844;28;20223;-81
2022/07/06 02:21:08;;;;;;;3.03;1.40;;;25.00;66.60;;;;;;5003701;28;20207;-82
2022/07/06 02:23:36;;;;;;;3.77;1.80;;;25.00;66.70;;;;;;5020300;28;20241;-80
2022/07/06 02:26:04;;;;;;;3.83;1.80;;;24.90;66.70;;;;;;4999434;28;20259;-82
2022/07/06 02:28:32;;;;;;;3.03;1.40;;;24.90;66.80;;;;;;5000390;28;20207;-82
2022/07/06 02:31:02;;;;;;;2.70;1.60;;;24.90;67.00;;;;;;5016343;28;20270;-81
2022/07/06 02:33:30;;;;;;;3.73;1.67;;;24.90;67.20;;;;;;5019786;28;20632;-82
2022/07/06 02:36:01;;;;;;;2.10;1.90;;;24.90;67.50;;;;;;5036120;28;20276;-82
2022/07/06 02:38:31;;;;;;;4.77;1.57;;;24.90;67.70;;;;;;5002210;28;20218;-83
2022/07/06 02:40:59;;;;;;;5.20;1.37;;;24.90;67.80;;;;;;5036088;28;20512;-82
2022/07/06 02:43:27;;;;;;;3.67;1.60;;;24.80;67.70;;;;;;5006262;28;20207;-81
2022/07/06 02:45:55;;;;;;;4.07;1.60;;;24.80;67.80;;;;;;5018567;28;20227;-83
2022/07/06 02:48:22;;;;;;;2.13;1.50;;;24.80;67.80;;;;;;5018487;28;20630;-84
2022/07/06 02:50:51;;;;;;;6.60;1.53;;;24.80;67.70;;;;;;5014430;28;20681;-82
2022/07/06 02:53:20;;;;;;;2.43;1.50;;;24.80;67.60;;;;;;5016989;28;20203;-82
2022/07/06 02:55:51;;;;;;;2.67;1.23;;;24.70;67.60;;;;;;5018943;28;20634;-82
2022/07/06 02:58:21;;;;;;;2.47;1.43;;;24.70;67.50;;;;;;5000726;28;20215;-80
2022/07/06 03:00:51;;;;;;;2.87;1.10;;;24.60;67.20;;;;;;5034930;28;20246;-80
2022/07/06 03:03:21;;;;;;;3.23;1.10;;;24.60;67.20;;;;;;5000979;28;20211;-81
2022/07/06 03:05:48;;;;;;;4.27;1.33;;;24.60;67.00;;;;;;5010807;28;20223;-83
2022/07/06 03:08:18;;;;;;;4.10;1.43;;;24.50;67.20;;;;;;5012025;28;20223;-83
2022/07/06 03:10:46;;;;;;;2.80;0.90;;;24.50;67.10;;;;;;5017344;28;20669;-82
2022/07/06 03:13:13;;;;;;;1.33;1.00;;;24.50;67.10;;;;;;4999884;28;20643;-82
2022/07/06 03:15:41;;;;;;;1.07;1.07;;;24.40;66.90;;;;;;5011938;28;20206;-81
2022/07/06 03:18:10;;;;;;;1.73;0.80;;;24.40;66.50;;;;;;5034342;28;20237;-83
2022/07/06 03:20:38;;;;;;;3.63;1.20;;;24.40;65.70;;;;;;5017742;28;20215;-81
2022/07/06 03:23:09;;;;;;;3.10;0.70;;;24.30;65.70;;;;;;5009573;28;20243;-82
2022/07/06 03:25:36;;;;;;;1.43;0.97;;;24.30;65.70;;;;;;5020166;28;20490;-83
2022/07/06 03:28:04;;;;;;;1.90;0.93;;;24.30;65.90;;;;;;5024984;28;20301;-83
2022/07/06 03:30:31;;;;;;;1.33;0.80;;;24.30;65.80;;;;;;5018074;28;20532;-82
2022/07/06 03:32:59;;;;;;;3.20;0.80;;;24.30;65.70;;;;;;5026286;28;20203;-82
2022/07/06 03:35:29;;;;;;;1.20;0.87;;;24.20;65.40;;;;;;4989585;28;20536;-83
2022/07/06 03:37:57;;;;;;;0.97;0.87;;;24.20;65.50;;;;;;5035019;28;20234;-82
2022/07/06 03:40:28;;;;;;;3.30;0.90;;;24.10;65.80;;;;;;5034749;28;20655;-82
2022/07/06 03:42:57;;;;;;;0.83;0.70;;;24.10;66.10;;;;;;5017553;28;20219;-82
2022/07/06 03:45:27;;;;;;;1.67;1.00;;;24.00;66.30;;;;;;5021904;28;20227;-82
2022/07/06 03:47:56;;;;;;;2.63;0.80;;;23.90;66.40;;;;;;5022247;28;20230;-82
2022/07/06 03:50:24;;;;;;;3.73;0.63;;;23.90;66.70;;;;;;5021757;28;20203;-82
2022/07/06 03:52:53;;;;;;;5.90;1.00;;;23.80;66.80;;;;;;5022115;28;20596;-83
2022/07/06 03:55:20;;;;;;;0.90;0.80;;;23.80;67.00;;;;;;5030603;28;20219;-82
2022/07/06 03:57:53;;;;;;;1.03;0.90;;;23.70;67.10;;;;;;5007563;28;20209;-82
2022/07/06 04:00:27;;;;;;;5.57;0.90;;;23.70;67.30;;;;;;4999918;28;20238;-83
2022/07/06 04:03:01;;;;;;;0.70;0.70;;;23.70;67.60;;;;;;5015041;28;20274;-82
2022/07/06 04:05:33;;;;;;;7.43;0.90;;;23.60;67.90;;;;;;5018898;28;20227;-82
2022/07/06 04:08:02;;;;;;;2.20;0.87;;;23.60;68.20;;;;;;5012148;28;20567;-82
2022/07/06 04:10:39;;;;;;;1.10;0.70;;;23.50;68.50;;;;;;5014294;28;20219;-82
2022/07/06 04:13:06;;;;;;;2.13;0.70;;;23.50;68.60;;;;;;5027093;28;20299;-83
2022/07/06 04:15:34;;;;;;;1.30;0.57;;;23.50;69.00;;;;;;5020769;28;20296;-82
2022/07/06 04:18:02;;;;;;;2.60;0.93;;;23.50;69.10;;;;;;5021546;28;20234;-82
2022/07/06 04:20:37;;;;;;;1.27;0.53;;;23.50;69.20;;;;;;5038212;28;20214;-82
2022/07/06 04:23:06;;;;;;;1.70;0.60;;;23.50;69.30;;;;;;5020417;28;20246;-82
2022/07/06 04:25:34;;;;;;;0.77;0.63;;;23.50;69.20;;;;;;5020755;28;20223;-82
2022/07/06 04:28:05;;;;;;;0.60;0.60;;;23.50;69.20;;;;;;5021570;28;20229;-82
2022/07/06 04:30:35;;;;;;;2.87;0.60;;;23.50;69.50;;;;;;5020254;28;20212;-82
2022/07/06 04:33:05;;;;;;;1.67;0.73;;;23.50;69.60;;;;;;5021509;28;20235;-82
2022/07/06 04:35:35;;;;;;;2.03;0.70;;;23.50;69.60;;;;;;5021768;28;20278;-82
2022/07/06 04:38:02;;;;;;;1.73;0.80;;;23.50;69.70;;;;;;5021293;28;20284;-82
2022/07/06 04:40:31;;;;;;;1.03;0.60;;;23.50;69.90;;;;;;5000123;28;20224;-83
2022/07/06 04:43:06;;;;;;;0.90;0.67;;;23.50;70.00;;;;;;5001669;28;20214;-82
2022/07/06 04:45:34;;;;;;;3.27;0.70;;;23.50;70.00;;;;;;5015536;28;20219;-81
2022/07/06 04:48:03;;;;;;;0.83;0.77;;;23.60;70.00;;;;;;4992123;28;20567;-82
2022/07/06 04:50:35;;;;;;;7.10;0.73;;;23.60;70.00;;;;;;5033046;28;20215;-82
2022/07/06 04:53:10;;;;;;;1.43;0.90;;;23.60;70.00;;;;;;5022040;28;20230;-82
2022/07/06 04:55:38;;;;;;;0.73;0.70;;;23.60;70.10;;;;;;5019999;28;20239;-82
2022/07/06 04:58:08;;;;;;;2.53;0.80;;;23.70;70.20;;;;;;5017154;28;20302;-82
2022/07/06 05:00:36;;;;;;;1.80;0.53;;;23.70;70.00;;;;;;5028544;28;20207;-81
2022/07/06 05:03:05;;;;;;;2.90;0.93;;;23.80;70.00;;;;;;5018128;28;20241;-82
2022/07/06 05:05:34;;;;;;;3.00;0.90;;;23.90;70.00;;;;;;5033152;28;20216;-82
2022/07/06 05:08:02;;;;;;;2.63;0.97;;;23.90;70.00;;;;;;5004019;28;20635;-82
2022/07/06 05:10:33;;;;;;;1.17;0.73;;;23.90;69.80;;;;;;5020731;28;20639;-82
2022/07/06 05:13:00;;;;;;;1.97;1.10;;;24.00;69.70;;;;;;5000756;28;20621;-82
2022/07/06 05:15:28;;;;;;;1.50;0.80;;;24.00;69.60;;;;;;5015987;28;20211;-82
2022/07/06 05:17:56;;;;;;;2.33;0.90;;;24.10;69.80;;;;;;5036846;28;20234;-83
2022/07/06 05:20:25;;;;;;;1.30;0.80;;;24.20;69.60;;;;;;5017830;28;20219;-82
2022/07/06 05:22:53;;;;;;;2.43;1.00;;;24.30;69.10;;;;;;5019564;28;20239;-82
2022/07/06 05:25:25;;;;;;;2.13;0.70;;;24.50;68.70;;;;;;5038897;28;20580;-83
2022/07/06 05:27:54;;;;;;;2.23;0.80;;;24.60;67.90;;;;;;5023504;28;20208;-82
2022/07/06 05:30:22;;;;;;;2.83;0.90;;;24.60;67.70;;;;;;5016642;28;20207;-83
2022/07/06 05:32:51;;;;;;;4.03;0.90;;;24.70;67.10;;;;;;5017313;28;20225;-83
2022/07/06 05:35:19;;;;;;;1.20;0.60;;;24.70;67.30;;;;;;5018748;28;20261;-82
2022/07/06 05:38:07;;;;;;;1.77;1.00;;;24.60;67.50;;;;;;5016279;28;20299;-82
2022/07/06 05:40:36;;;;;;;2.43;0.90;;;24.70;67.60;;;;;;5020089;28;20223;-82
2022/07/06 05:43:05;;;;;;;1.23;0.80;;;24.70;67.70;;;;;;5020557;28;20239;-82
2022/07/06 05:45:34;;;;;;;1.70;0.77;;;24.70;67.80;;;;;;5020045;28;20232;-82
2022/07/06 05:50:50;;;;;;;3.80;1.00;;;24.70;68.30;;;;;;5001403;28;20613;-81
2022/07/06 05:53:18;;;;;;;2.23;1.10;;;24.80;68.40;;;;;;5020503;28;20208;-81
2022/07/06 05:55:50;;;;;;;3.73;1.43;;;24.90;68.20;;;;;;5014519;28;20229;-81
2022/07/06 05:58:19;;;;;;;3.40;1.00;;;25.00;68.00;;;;;;5019227;28;20207;-81
2022/07/06 06:00:46;;;;;;;7.93;1.53;;;25.10;67.40;;;;;;5034457;28;20239;-81
2022/07/06 06:03:18;;;;;;;1.63;1.00;;;25.30;66.80;;;;;;5020586;28;20301;-82
2022/07/06 06:05:50;;;;;;;4.23;1.40;;;25.40;66.80;;;;;;5019897;28;20298;-82
2022/07/06 06:08:19;;;;;;;3.20;1.07;;;25.50;66.80;;;;;;5026174;28;20222;-81
2022/07/06 06:10:49;;;;;;;1.33;1.23;;;25.60;66.70;;;;;;5026897;28;20266;-81
2022/07/06 06:13:19;;;;;;;2.60;1.30;;;25.60;66.70;;;;;;5034390;28;20203;-83
2022/07/06 06:15:46;;;;;;;3.70;1.33;;;25.70;66.90;;;;;;5003114;28;20207;-81
2022/07/06 06:18:20;;;;;;;3.50;1.20;;;25.80;67.10;;;;;;4999352;28;20219;-81
2022/07/06 06:20:50;;;;;;;2.50;1.20;;;25.90;66.10;;;;;;5026333;28;20210;-81
2022/07/06 06:23:17;;;;;;;5.03;1.57;;;26.00;66.30;;;;;;5036485;28;20274;-81
2022/07/06 06:25:45;;;;;;;2.90;1.63;;;26.00;66.20;;;;;;5018954;28;20314;-81
2022/07/06 06:28:13;;;;;;;4.93;1.17;;;26.10;66.50;;;;;;5036702;28;20264;-81
2022/07/06 06:30:41;;;;;;;4.83;1.60;;;26.10;66.30;;;;;;5016593;28;20207;-82
2022/07/06 06:33:18;;;;;;;6.37;1.50;;;26.00;66.50;;;;;;5003552;28;20615;-83
2022/07/06 06:35:51;;;;;;;2.90;1.53;;;26.10;66.70;;;;;;5036927;28;20231;-84
2022/07/06 06:38:25;;;;;;;6.90;2.30;;;26.10;66.80;;;;;;4993577;28;20669;-83
2022/07/06 06:41:02;;;;;;;7.87;1.90;;;26.10;66.90;;;;;;5003414;28;20220;-83
2022/07/06 06:43:40;;;;;;;4.43;1.67;;;26.10;67.50;;;;;;5034235;28;20212;-84
2022/07/06 06:46:13;;;;;;;2.73;2.07;;;26.20;67.80;;;;;;5019405;28;20229;-84
2022/07/06 06:48:41;;;;;;;7.57;2.43;;;26.40;68.10;;;;;;5018464;28;20813;-83
2022/07/06 06:51:08;;;;;;;2.57;1.47;;;26.60;68.80;;;;;;5034238;28;20284;-84
2022/07/06 06:53:40;;;;;;;8.33;2.10;;;26.90;67.60;;;;;;5034527;28;20217;-84
2022/07/06 06:56:08;;;;;;;1.80;1.27;;;27.20;65.80;;;;;;5021717;28;20273;-84
2022/07/06 06:58:38;;;;;;;3.53;1.87;;;27.30;64.60;;;;;;4994760;28;20284;-84
2022/07/06 07:01:25;;;;;;;3.87;1.87;;;27.40;63.40;;;;;;5034543;28;20289;-85
2022/07/06 07:03:54;;;;;;;2.57;1.43;;;27.40;63.40;;;;;;5020970;28;20253;-84
2022/07/06 07:06:24;;;;;;;2.03;1.33;;;27.30;63.40;;;;;;5006712;28;20244;-84
2022/07/06 07:08:52;;;;;;;2.67;1.60;;;27.30;63.70;;;;;;5014715;28;20246;-84
2022/07/06 07:11:19;;;;;;;6.57;2.00;;;27.30;63.90;;;;;;5018802;28;20215;-84
2022/07/06 07:13:47;;;;;;;3.20;1.50;;;27.40;64.20;;;;;;5018532;28;20233;-83
2022/07/06 07:16:14;;;;;;;5.07;2.00;;;27.60;63.70;;;;;;5035049;28;20244;-84
2022/07/06 07:18:41;;;;;;;4.40;1.70;;;27.60;63.60;;;;;;5001606;28;20699;-84
2022/07/06 07:21:09;;;;;;;2.77;1.80;;;27.70;63.70;;;;;;5021140;28;20657;-84
2022/07/06 07:23:36;;;;;;;5.10;1.83;;;27.90;63.80;;;;;;5021346;28;20277;-81
2022/07/06 07:26:04;;;;;;;5.17;1.97;;;28.10;62.70;;;;;;5025951;28;20244;-83
2022/07/06 07:28:31;;;;;;;3.13;1.60;;;28.20;62.10;;;;;;5039268;28;20644;-83
2022/07/06 07:30:58;;;;;;;2.77;2.10;;;28.30;61.90;;;;;;5038293;28;20237;-83
2022/07/06 07:33:26;;;;;;;7.00;1.60;;;28.20;60.90;;;;;;5000971;28;20219;-84
2022/07/06 07:35:55;;;;;;;4.23;1.60;;;28.20;61.70;;;;;;5020398;28;20206;-83
2022/07/06 07:38:31;;;;;;;4.80;1.93;;;28.20;61.80;;;;;;5038883;28;20203;-83
2022/07/06 07:40:59;;;;;;;1.90;1.70;;;28.30;61.50;;;;;;5019076;28;20207;-84
2022/07/06 07:43:27;;;;;;;3.47;1.37;;;28.50;61.00;;;;;;5021384;28;20199;-83
2022/07/06 07:45:54;;;;;;;2.40;1.40;;;28.70;60.90;;;;;;5038618;28;20227;-82
2022/07/06 07:48:21;;;;;;;3.60;1.23;;;28.90;59.40;;;;;;5036000;28;20302;-83
2022/07/06 07:50:49;;;;;;;2.60;1.20;;;28.90;59.70;;;;;;5033117;28;20208;-82
2022/07/06 07:53:17;;;;;;;2.90;1.60;;;29.10;59.90;;;;;;5021186;28;20192;-83
2022/07/06 07:55:44;;;;;;;2.23;1.40;;;29.10;57.90;;;;;;5021215;28;20298;-83
2022/07/06 07:58:12;;;;;;;3.70;1.90;;;29.10;59.00;;;;;;5005014;28;20210;-84
2022/07/06 08:00:39;;;;;;;2.10;1.90;;;29.20;59.10;;;;;;5038051;28;20218;-84
2022/07/06 08:03:06;;;;;;;3.97;1.93;;;29.40;58.70;;;;;;5020996;28;20203;-84
2022/07/06 08:05:33;;;;;;;2.43;1.53;;;29.40;58.40;;;;;;5019950;28;20590;-83
2022/07/06 08:08:01;;;;;;;3.67;1.70;;;29.40;58.30;;;;;;5037706;28;20729;-82
2022/07/06 08:10:28;;;;;;;4.50;1.70;;;29.30;59.20;;;;;;5037524;28;20222;-82
2022/07/06 08:12:56;;;;;;;2.80;1.70;;;29.30;58.00;;;;;;5021312;28;20207;-82
2022/07/06 08:15:24;;;;;;;2.93;1.80;;;29.40;58.40;;;;;;5012223;28;20199;-84
2022/07/06 08:17:52;;;;;;;1.87;1.60;;;29.50;59.20;;;;;;5033832;28;20251;-84
2022/07/06 08:20:19;;;;;;;2.77;1.50;;;29.60;58.60;;;;;;5020478;28;20608;-82
2022/07/06 08:22:47;;;;;;;1.80;1.33;;;29.70;58.30;;;;;;5008997;28;20250;-84
2022/07/06 08:25:14;;;;;;;1.73;1.20;;;29.80;57.00;;;;;;4989913;28;20215;-83
2022/07/06 08:27:41;;;;;;;1.80;1.33;;;29.90;56.70;;;;;;4998605;28;20232;-83
2022/07/06 08:30:10;;;;;;;3.07;1.53;;;29.90;56.70;;;;;;4964910;28;20247;-81
2022/07/06 08:32:42;;;;;;;4.93;1.43;;;30.00;56.00;;;;;;4981901;28;20665;-82
2022/07/06 08:35:31;;;;;;;2.20;2.00;;;29.90;56.10;;;;;;4980362;28;20303;-84
2022/07/06 08:37:59;;;;;;;1.80;1.67;;;29.90;56.30;;;;;;4997730;28;20211;-81
2022/07/06 08:40:35;;;;;;;4.37;1.60;;;30.10;56.30;;;;;;4978326;28;20229;-83
2022/07/06 08:43:04;;;;;;;2.47;1.40;;;30.20;56.60;;;;;;4985755;28;20567;-83
2022/07/06 08:45:34;;;;;;;3.57;1.50;;;30.30;56.90;;;;;;4955254;28;20236;-82
2022/07/06 08:48:06;;;;;;;3.60;1.47;;;30.60;55.80;;;;;;4984490;28;20741;-83
2022/07/06 08:50:34;;;;;;;2.63;1.47;;;30.60;55.00;;;;;;4998132;28;20219;-83
2022/07/06 08:53:02;;;;;;;6.07;1.70;;;30.60;55.10;;;;;;4977688;28;20637;-82
2022/07/06 08:55:29;;;;;;;5.60;1.40;;;30.60;56.00;;;;;;4977117;28;20226;-84
2022/07/06 08:57:58;;;;;;;5.30;1.90;;;30.60;56.20;;;;;;4981023;28;20234;-84
2022/07/06 09:00:25;;;;;;;5.70;1.90;;;30.80;56.10;;;;;;4977461;28;20658;-83
2022/07/06 09:02:56;;;;;;;2.07;1.77;;;31.10;56.00;;;;;;4961389;28;20223;-83
2022/07/06 09:05:24;;;;;;;1.80;1.60;;;31.40;55.20;;;;;;4980939;28;20235;-83
2022/07/06 09:07:53;;;;;;;2.33;1.40;;;31.60;53.50;;;;;;4997601;28;20236;-84
2022/07/06 09:10:26;;;;;;;2.83;1.50;;;31.70;54.10;;;;;;4997264;28;20312;-81
2022/07/06 09:13:02;;;;;;;4.40;1.30;;;31.80;53.20;;;;;;4986765;28;20224;-84
2022/07/06 09:15:30;;;;;;;3.87;2.10;;;31.90;52.30;;;;;;4987754;28;20266;-81
2022/07/06 09:17:57;;;;;;;2.33;1.40;;;32.00;52.00;;;;;;4998375;28;20224;-83
2022/07/06 09:20:26;;;;;;;3.50;1.40;;;32.10;51.40;;;;;;4996988;28;20231;-83
2022/07/06 09:23:02;;;;;;;9.07;2.27;;;32.20;51.60;;;;;;4987246;28;20936;-85
2022/07/06 09:25:30;;;;;;;4.37;1.80;;;32.40;51.70;;;;;;5009067;28;20229;-83
2022/07/06 09:27:59;;;;;;;3.97;1.63;;;32.60;50.90;;;;;;5013098;28;20259;-83
2022/07/06 09:30:27;;;;;;;1.87;1.27;;;32.80;49.10;;;;;;5017248;28;20254;-84
2022/07/06 09:32:57;;;;;;;2.67;1.43;;;32.90;49.30;;;;;;5029488;28;20233;-83
2022/07/06 09:35:28;;;;;;;4.60;1.50;;;33.10;48.70;;;;;;4999179;28;20215;-83
2022/07/06 09:38:11;;;;;;;2.47;1.40;;;33.20;47.80;;;;;;5019358;28;20203;-83
2022/07/06 09:40:40;;;;;;;3.77;1.60;;;33.40;47.00;;;;;;4986431;28;20231;-83
2022/07/06 09:43:15;;;;;;;3.13;1.27;;;33.60;47.30;;;;;;5008118;28;20675;-82
2022/07/06 09:45:46;;;;;;;5.13;1.73;;;33.80;46.50;;;;;;4999676;28;20301;-82
2022/07/06 09:48:18;;;;;;;2.03;1.37;;;34.00;45.80;;;;;;4999855;28;20234;-83
2022/07/06 09:50:48;;;;;;;4.73;1.63;;;34.20;45.50;;;;;;4985186;28;20893;-82
2022/07/06 09:53:15;;;;;;;3.67;1.20;;;34.30;45.90;;;;;;5002235;28;20231;-83
2022/07/06 09:55:51;;;;;;;2.47;1.07;;;34.50;46.00;;;;;;5003675;28;20211;-83
2022/07/06 09:58:19;;;;;;;2.30;1.73;;;34.60;44.00;;;;;;5013150;28;20207;-83
2022/07/06 10:01:08;;;;;;;3.63;1.83;;;34.60;43.70;;;;;;4999182;28;20208;-83
2022/07/06 10:03:38;;;;;;;2.77;1.43;;;34.40;45.40;;;;;;5005108;28;20239;-83
2022/07/06 10:06:05;;;;;;;1.67;1.00;;;34.40;45.90;;;;;;4981424;28;20513;-81
2022/07/06 10:08:34;;;;;;;1.57;1.43;;;34.40;44.90;;;;;;5016669;28;20220;-83
2022/07/06 10:11:02;;;;;;;2.07;1.40;;;34.30;45.60;;;;;;4996557;28;20204;-82
2022/07/06 10:13:31;;;;;;;5.43;1.50;;;34.40;47.00;;;;;;5000237;28;20271;-83
2022/07/06 10:15:59;;;;;;;4.13;1.33;;;34.60;46.50;;;;;;5006972;28;20689;-82
2022/07/06 10:18:27;;;;;;;4.30;1.23;;;34.70;45.40;;;;;;5018984;28;20212;-82
2022/07/06 10:20:55;;;;;;;5.73;1.73;;;34.80;45.30;;;;;;5016585;28;20302;-81
2022/07/06 10:23:24;;;;;;;2.60;1.47;;;35.00;45.90;;;;;;5014653;28;20242;-81
2022/07/06 10:25:52;;;;;;;6.17;2.00;;;35.10;45.50;;;;;;4995496;28;20220;-81
2022/07/06 10:28:20;;;;;;;2.97;2.10;;;35.20;44.80;;;;;;4990462;28;20230;-80
2022/07/06 10:30:50;;;;;;;1.63;1.37;;;35.30;44.80;;;;;;5006284;28;20204;-81
2022/07/06 10:33:17;;;;;;;3.17;1.50;;;35.40;44.70;;;;;;5016096;28;20217;-81
2022/07/06 10:35:52;;;;;;;3.23;1.60;;;35.50;42.60;;;;;;5018185;28;20211;-80
2022/07/06 10:38:19;;;;;;;1.70;1.60;;;35.50;43.90;;;;;;5002006;28;20772;-81
2022/07/06 10:41:06;;;;;;;3.10;1.30;;;35.50;43.80;;;;;;5015587;28;20319;-81
2022/07/06 10:43:38;;;;;;;1.43;1.20;;;35.60;43.50;;;;;;5010342;28;20641;-81
2022/07/06 10:46:07;;;;;;;1.57;1.47;;;35.70;42.70;;;;;;5012944;28;20197;-81
2022/07/06 10:48:39;;;;;;;2.27;1.20;;;35.60;41.90;;;;;;4983298;28;20528;-81
2022/07/06 10:51:08;;;;;;;2.97;1.33;;;35.50;43.30;;;;;;5012056;28;20295;-80
2022/07/06 10:53:40;;;;;;;1.50;1.40;;;35.50;43.00;;;;;;5014570;28;20707;-80
2022/07/06 10:56:12;;;;;;;2.73;1.50;;;35.60;41.60;;;;;;4993556;28;20286;-81
2022/07/06 10:58:51;;;;;;;1.83;1.33;;;35.50;41.20;;;;;;5010503;28;20213;-81
2022/07/06 11:01:21;;;;;;;2.93;1.37;;;35.30;42.60;;;;;;4984833;28;20267;-79
2022/07/06 11:04:06;;;;;;;4.93;1.40;;;35.30;42.50;;;;;;4991002;28;20290;-80
2022/07/06 11:06:39;;;;;;;1.80;1.37;;;35.40;42.20;;;;;;5012018;28;20218;-81
2022/07/06 11:09:09;;;;;;;1.23;1.13;;;35.50;40.50;;;;;;4980789;28;20219;-81
2022/07/06 11:11:38;;;;;;;1.97;1.30;;;35.60;40.90;;;;;;4971363;28;20204;-81
2022/07/06 11:14:07;;;;;;;1.70;1.30;;;35.70;41.60;;;;;;4994617;28;20310;-82
2022/07/06 11:16:38;;;;;;;1.30;1.20;;;35.90;40.70;;;;;;4995187;28;20626;-82
2022/07/06 11:19:11;;;;;;;4.27;1.50;;;36.00;40.70;;;;;;4999587;28;20223;-81
2022/07/06 11:21:51;;;;;;;1.93;1.57;;;36.00;41.50;;;;;;5006165;28;20655;-81
2022/07/06 11:24:24;;;;;;;3.60;1.60;;;36.00;39.50;;;;;;4998496;28;20660;-82
2022/07/06 11:26:52;;;;;;;2.07;1.47;;;35.50;40.60;;;;;;4999135;28;20307;-82
2022/07/06 11:29:23;;;;;;;2.53;1.53;;;35.20;41.30;;;;;;5013416;28;20244;-82
2022/07/06 11:31:53;;;;;;;2.27;1.33;;;34.90;41.40;;;;;;5000646;28;20618;-82
2022/07/06 11:34:24;;;;;;;1.53;1.40;;;34.60;42.00;;;;;;5002673;28;20611;-82
2022/07/06 11:37:04;;;;;;;1.50;1.40;;;34.60;42.80;;;;;;4995091;28;20212;-81
2022/07/06 11:39:33;;;;;;;3.17;1.60;;;34.60;41.80;;;;;;4981109;28;20222;-81
2022/07/06 11:42:03;;;;;;;5.17;1.30;;;34.50;41.90;;;;;;4982601;28;20670;-82
2022/07/06 11:44:31;;;;;;;3.13;1.40;;;34.50;41.90;;;;;;5005028;28;20205;-81
2022/07/06 11:47:02;;;;;;;6.00;1.57;;;34.50;42.50;;;;;;5002389;28;20228;-81
2022/07/06 11:49:31;;;;;;;1.87;1.77;;;34.60;42.80;;;;;;5014063;28;20208;-82
2022/07/06 11:51:58;;;;;;;3.90;1.50;;;34.80;42.20;;;;;;4986360;28;20204;-82
2022/07/06 11:54:26;;;;;;;3.67;1.33;;;35.10;41.60;;;;;;5021232;28;20235;-81
2022/07/06 11:56:55;;;;;;;2.53;1.40;;;35.10;41.10;;;;;;4977867;28;20210;-81
2022/07/06 11:59:25;;;;;;;2.43;1.50;;;35.10;41.50;;;;;;5000905;28;20214;-81
2022/07/06 12:02:07;;;;;;;4.23;1.40;;;35.00;41.10;;;;;;4973095;28;20537;-81
2022/07/06 12:04:45;;;;;;;2.13;1.30;;;34.80;41.40;;;;;;5003491;28;20204;-81
2022/07/06 12:07:15;;;;;;;2.30;1.43;;;34.60;41.60;;;;;;4988545;28;20227;-79
2022/07/06 12:09:45;;;;;;;1.60;1.30;;;34.60;41.30;;;;;;5021501;28;20204;-81
2022/07/06 12:12:12;;;;;;;1.50;1.23;;;34.60;40.40;;;;;;5000380;28;20593;-79
2022/07/06 12:14:41;;;;;;;2.77;1.30;;;34.70;40.30;;;;;;5014667;28;20196;-79
2022/07/06 12:17:10;;;;;;;1.87;1.10;;;34.70;40.70;;;;;;4995348;28;20204;-81
2022/07/06 12:19:38;;;;;;;2.13;1.30;;;34.70;39.40;;;;;;5013559;28;20296;-80
2022/07/06 12:22:07;;;;;;;2.60;1.30;;;34.70;39.60;;;;;;5011652;28;20204;-81
2022/07/06 12:24:35;;;;;;;3.90;1.43;;;34.70;40.50;;;;;;5020098;28;20223;-81
2022/07/06 12:27:13;;;;;;;3.10;1.40;;;34.70;40.20;;;;;;5016196;28;20210;-80
2022/07/06 12:29:41;;;;;;;3.30;1.37;;;34.70;41.30;;;;;;5003312;28;20204;-80
2022/07/06 12:32:18;;;;;;;1.47;1.20;;;34.70;39.70;;;;;;4999459;28;20308;-80
2022/07/06 12:34:45;;;;;;;1.77;1.20;;;34.60;39.70;;;;;;4998303;28;20242;-80
2022/07/06 12:37:13;;;;;;;1.67;1.30;;;34.60;40.50;;;;;;5018573;28;20203;-80
2022/07/06 12:39:45;;;;;;;2.70;1.30;;;34.70;40.80;;;;;;5014801;28;20242;-81
2022/07/06 12:42:17;;;;;;;2.47;1.50;;;34.80;40.30;;;;;;5014069;28;20200;-80
2022/07/06 12:44:49;;;;;;;3.27;1.30;;;35.00;39.20;;;;;;5002847;28;20225;-80
2022/07/06 12:47:23;;;;;;;2.10;1.10;;;35.10;38.80;;;;;;5020303;28;20208;-80
2022/07/06 12:50:10;;;;;;;3.27;1.10;;;35.30;39.20;;;;;;4986658;28;20211;-79
2022/07/06 12:52:38;;;;;;;5.33;1.07;;;35.40;38.10;;;;;;5016017;28;20263;-81
2022/07/06 12:55:09;;;;;;;1.30;0.80;;;35.50;38.20;;;;;;5016338;28;20232;-81
2022/07/06 12:57:47;;;;;;;1.00;1.00;;;35.50;38.10;;;;;;5012321;28;20230;-80
2022/07/06 13:00:16;;;;;;;1.30;1.20;;;35.70;37.30;;;;;;5000415;28;20216;-80
2022/07/06 13:02:54;;;;;;;1.33;1.10;;;35.80;37.40;;;;;;5015452;28;20619;-81
2022/07/06 13:05:38;;;;;;;4.20;1.17;;;35.90;37.20;;;;;;5019731;28;20576;-81